»·PEaware :: N143VT KGJT-KIFP

N143VT :: KGJT-KIFP

FLIGHT INFORMATION

Flight Status: Arrived
Operator: Privately registered:
United States
More flights under this callsign
Pilot: Anonymous 16492 (16492)
Aircraft: BOMBARDIER BD-100 CHALLENGER 300
(CL30)
More flights by this aircraft type
Origin: KGJT Walker
United States
Destination: KIFP Laughlin/Bullhead Intl
United States
More flights between these airports :: More routes between these airports
Route: +RHONE2 JNC V8 LYNSY
File this flight plan on PilotEdge
Remarks:
Altitude:
(Current/Filed)
32,000ft
Speed:
(Current/Filed)
440kts
Departed: 07-Aug-18 05:04 PM
Arrived: 07-Aug-18 06:51 PM
Distance/Time
Traveled:
374nm/1:47
Distance/Time
To Go:
Arrived

Flight Plot

Page will automatically refresh every two minutes.

Flight plan parsing failed; only flown route is shown


Map Options




Map Legend


Flown Route
Filed Route
Departure Airport
Arrival Airport
Navaid (VOR, NDB)
Fix

Horizontal Profiles

Position Reports

Time Latitude Longitude Heading Altitude Ground
Speed
07-Aug-18 16:46 39.122260 -108.526889 38 4862ft 0kts
07-Aug-18 16:47 39.122260 -108.526889 38 4862ft 0kts
07-Aug-18 16:48 39.122260 -108.526889 38 4862ft 0kts
07-Aug-18 16:49 39.122260 -108.526889 38 4862ft 0kts
07-Aug-18 16:50 39.122260 -108.526889 38 4862ft 0kts
07-Aug-18 16:51 39.122260 -108.526889 38 4862ft 0kts
07-Aug-18 16:52 39.122260 -108.526889 38 4862ft 0kts
07-Aug-18 16:53 39.122260 -108.526889 38 4862ft 0kts
07-Aug-18 16:54 39.122260 -108.526889 38 4862ft 0kts
07-Aug-18 16:55 39.122260 -108.526889 38 4862ft 0kts
07-Aug-18 16:56 39.122260 -108.526889 38 4862ft 0kts
07-Aug-18 16:57 39.122260 -108.526889 38 4862ft 0kts
07-Aug-18 16:58 39.122260 -108.526889 38 4862ft 0kts
07-Aug-18 16:59 39.122290 -108.526858 38 4862ft 2kts
07-Aug-18 17:00 39.119998 -108.519474 125 4862ft 32kts
07-Aug-18 17:01 39.117913 -108.515592 96 4862ft 0kts
07-Aug-18 17:02 39.117912 -108.515591 96 4862ft 0kts
07-Aug-18 17:03 39.117956 -108.515400 56 4863ft 4kts
07-Aug-18 17:04 39.119044 -108.515349 305 4863ft 31kts
07-Aug-18 17:05 39.141021 -108.555398 301 6299ft 186kts
07-Aug-18 17:06 39.169365 -108.609232 282 9989ft 189kts
07-Aug-18 17:07 39.142330 -108.666809 233 13174ft 202kts
07-Aug-18 17:08 39.098020 -108.734677 231 14028ft 313kts
07-Aug-18 17:09 39.048320 -108.832737 247 16259ft 338kts
07-Aug-18 17:10 39.009841 -108.946384 248 19319ft 358kts
07-Aug-18 17:11 38.970440 -109.065209 249 22148ft 371kts
07-Aug-18 17:12 38.929283 -109.189723 249 24516ft 386kts
07-Aug-18 17:13 38.886935 -109.317480 249 26594ft 399kts
07-Aug-18 17:14 38.843006 -109.449450 248 28504ft 409kts
07-Aug-18 17:15 38.798136 -109.583651 248 30198ft 417kts
07-Aug-18 17:16 38.752073 -109.720770 248 31924ft 420kts
07-Aug-18 17:17 38.704463 -109.861829 248 32028ft 440kts
07-Aug-18 17:18 38.655762 -110.005398 248 32027ft 444kts
07-Aug-18 17:19 38.606520 -110.149870 248 32027ft 447kts
07-Aug-18 17:20 38.556626 -110.295493 248 32030ft 449kts
07-Aug-18 17:21 38.506363 -110.441463 248 32034ft 450kts
07-Aug-18 17:22 38.455918 -110.587229 248 32034ft 451kts
07-Aug-18 17:31 39.122260 -108.526889 38 4862ft 0kts
07-Aug-18 17:32 39.122260 -108.526889 38 4862ft 0kts
07-Aug-18 17:33 39.122260 -108.526889 38 4862ft 0kts
07-Aug-18 17:34 39.122260 -108.526889 38 4862ft 0kts
07-Aug-18 17:35 39.122260 -108.526889 38 4862ft 0kts
07-Aug-18 17:36 39.122260 -108.526889 38 4862ft 0kts
07-Aug-18 17:37 39.122260 -108.526889 38 4862ft 0kts
07-Aug-18 17:38 39.122260 -108.526889 38 4862ft 0kts
07-Aug-18 17:39 39.122260 -108.526889 38 4862ft 0kts
07-Aug-18 17:40 39.122334 -108.526812 38 4862ft 5kts
07-Aug-18 17:41 39.120227 -108.519929 124 4862ft 33kts
07-Aug-18 17:42 39.117964 -108.515507 77 4863ft 0kts
07-Aug-18 17:43 39.118478 -108.514583 17 4862ft 14kts
07-Aug-18 17:44 39.127233 -108.530383 305 4925ft 156kts
07-Aug-18 17:45 39.156303 -108.580129 303 8112ft 187kts
07-Aug-18 17:46 39.159091 -108.641116 233 10724ft 246kts
07-Aug-18 17:47 39.112819 -108.712803 231 13569ft 300kts
07-Aug-18 17:48 39.059134 -108.805719 249 16006ft 352kts
07-Aug-18 17:49 39.019478 -108.922826 250 19266ft 365kts
07-Aug-18 17:50 38.978326 -109.044389 248 22005ft 379kts
07-Aug-18 17:51 38.935995 -109.170943 248 24227ft 394kts
07-Aug-18 17:52 38.892305 -109.301669 248 26292ft 407kts
07-Aug-18 17:53 38.847387 -109.436399 248 28163ft 417kts
07-Aug-18 17:54 38.801611 -109.573297 248 29910ft 423kts
07-Aug-18 17:55 38.757053 -109.705992 248 31970ft 419kts
07-Aug-18 17:56 38.709251 -109.847706 248 31969ft 458kts
07-Aug-18 17:57 38.657569 -110.000082 248 31962ft 466kts
07-Aug-18 17:58 38.606342 -110.150384 248 31962ft 463kts
07-Aug-18 17:59 38.554978 -110.300286 248 31966ft 460kts
07-Aug-18 18:00 38.503694 -110.449194 248 31970ft 458kts
07-Aug-18 18:01 38.452465 -110.597178 248 31969ft 456kts
07-Aug-18 18:02 38.398035 -110.740883 242 31974ft 456kts
07-Aug-18 18:03 38.336166 -110.881294 242 31973ft 456kts
07-Aug-18 18:04 38.273857 -111.021250 242 31972ft 456kts
07-Aug-18 18:05 38.211840 -111.159793 242 31972ft 455kts
07-Aug-18 18:06 38.149428 -111.298589 242 31971ft 454kts
07-Aug-18 18:07 38.086667 -111.437549 242 32039ft 452kts
07-Aug-18 18:08 38.024612 -111.574357 242 32215ft 448kts
07-Aug-18 18:09 37.963204 -111.709151 241 32258ft 448kts
07-Aug-18 18:10 37.900889 -111.845363 241 32257ft 450kts
07-Aug-18 18:11 37.838704 -111.980728 241 32256ft 450kts
07-Aug-18 18:12 37.775758 -112.117172 241 32255ft 451kts
07-Aug-18 18:13 37.712661 -112.253369 241 32254ft 451kts
07-Aug-18 18:14 37.650346 -112.389728 242 32254ft 451kts
07-Aug-18 18:15 37.588386 -112.526073 242 32253ft 451kts
07-Aug-18 18:16 37.526663 -112.661356 241 32196ft 452kts
07-Aug-18 18:17 37.464126 -112.797851 241 32099ft 455kts
07-Aug-18 18:18 37.401227 -112.934581 241 32077ft 455kts
07-Aug-18 18:19 37.337824 -113.071800 241 32059ft 454kts
07-Aug-18 18:20 37.268264 -113.203851 230 31932ft 458kts
07-Aug-18 18:21 37.174900 -113.311455 220 31852ft 461kts
07-Aug-18 18:22 37.074582 -113.409057 220 31840ft 449kts
07-Aug-18 18:23 36.978817 -113.502258 220 30739ft 431kts
07-Aug-18 18:24 36.886204 -113.592163 220 29303ft 422kts
07-Aug-18 18:25 36.794698 -113.680710 219 27839ft 414kts
07-Aug-18 18:26 36.705821 -113.766653 219 26355ft 406kts
07-Aug-18 18:27 36.619230 -113.849808 219 24903ft 398kts
07-Aug-18 18:28 36.547076 -113.919002 218 23649ft 391kts
07-Aug-18 18:29 36.448132 -114.013644 218 21863ft 382kts
07-Aug-18 18:30 36.365174 -114.092764 218 20111ft 371kts
07-Aug-18 18:31 36.298164 -114.156522 218 17986ft 363kts
07-Aug-18 18:32 36.207028 -114.243000 218 14981ft 350kts
07-Aug-18 18:33 36.143130 -114.303476 217 13194ft 343kts
07-Aug-18 18:34 36.068466 -114.373993 217 11144ft 334kts
07-Aug-18 18:35 35.989921 -114.447982 217 10020ft 293kts
07-Aug-18 18:36 35.936357 -114.498340 216 8541ft 288kts
07-Aug-18 18:37 35.874912 -114.555985 216 6747ft 277kts
07-Aug-18 18:38 35.819260 -114.608119 216 6723ft 248kts
07-Aug-18 18:39 35.766360 -114.657530 215 6717ft 236kts
07-Aug-18 18:40 35.715177 -114.705280 215 6717ft 227kts
07-Aug-18 18:41 35.663337 -114.745978 175 6721ft 224kts
07-Aug-18 18:42 35.602722 -114.722129 160 6671ft 237kts
07-Aug-18 18:43 35.539912 -114.693069 159 6574ft 241kts
07-Aug-18 18:44 35.482167 -114.665001 159 6123ft 201kts
07-Aug-18 18:45 35.430883 -114.638100 157 4848ft 199kts
07-Aug-18 18:46 35.381496 -114.611900 157 3422ft 195kts
07-Aug-18 18:47 35.330355 -114.584669 157 3300ft 203kts
07-Aug-18 18:48 35.282003 -114.570224 176 3059ft 166kts
07-Aug-18 18:49 35.239612 -114.566486 176 2277ft 145kts
07-Aug-18 18:50 35.200973 -114.563079 174 1565ft 132kts
07-Aug-18 18:51 35.165146 -114.560054 176 708ft 119kts
07-Aug-18 18:52 35.147536 -114.558740 164 707ft 19kts
07-Aug-18 18:53 35.151557 -114.557708 355 707ft 17kts
07-Aug-18 18:54 35.154904 -114.557980 356 708ft 11kts
07-Aug-18 18:55 35.158036 -114.555997 134 708ft 12kts
07-Aug-18 18:56 35.157670 -114.556139 269 708ft 0kts

Navigation Log

Ident Type
Flight plan parsing failed, navigation log unavailable